sensor_id;sensor_type;location;lat;lon;timestamp;temperature;humidity
8103;DHT22;4094;49.948;11.574;2023-06-22T00:01:31;24.50;61.20
8103;DHT22;4094;49.948;11.574;2023-06-22T00:04:00;24.50;61.30
8103;DHT22;4094;49.948;11.574;2023-06-22T00:06:31;24.40;61.20
8103;DHT22;4094;49.948;11.574;2023-06-22T00:09:00;24.50;61.30
8103;DHT22;4094;49.948;11.574;2023-06-22T00:11:30;24.40;61.30
8103;DHT22;4094;49.948;11.574;2023-06-22T00:14:01;24.40;61.20
8103;DHT22;4094;49.948;11.574;2023-06-22T00:16:31;24.40;61.50
8103;DHT22;4094;49.948;11.574;2023-06-22T00:19:02;24.40;61.60
8103;DHT22;4094;49.948;11.574;2023-06-22T00:21:33;24.30;61.60
8103;DHT22;4094;49.948;11.574;2023-06-22T00:24:03;24.30;61.70
8103;DHT22;4094;49.948;11.574;2023-06-22T00:26:33;24.30;61.80
8103;DHT22;4094;49.948;11.574;2023-06-22T00:29:02;24.20;61.70
8103;DHT22;4094;49.948;11.574;2023-06-22T00:31:31;24.20;62.40
8103;DHT22;4094;49.948;11.574;2023-06-22T00:34:01;24.20;61.70
8103;DHT22;4094;49.948;11.574;2023-06-22T00:36:30;24.10;61.70
8103;DHT22;4094;49.948;11.574;2023-06-22T00:39:01;24.10;61.80
8103;DHT22;4094;49.948;11.574;2023-06-22T00:41:31;24.00;61.90
8103;DHT22;4094;49.948;11.574;2023-06-22T00:44:01;24.00;62.00
8103;DHT22;4094;49.948;11.574;2023-06-22T00:46:32;23.90;62.20
8103;DHT22;4094;49.948;11.574;2023-06-22T00:49:02;23.80;62.30
8103;DHT22;4094;49.948;11.574;2023-06-22T00:51:33;23.80;62.50
8103;DHT22;4094;49.948;11.574;2023-06-22T00:54:06;23.80;62.80
8103;DHT22;4094;49.948;11.574;2023-06-22T00:56:36;23.70;62.80
8103;DHT22;4094;49.948;11.574;2023-06-22T00:59:06;23.70;62.80
8103;DHT22;4094;49.948;11.574;2023-06-22T01:01:35;23.60;62.90
8103;DHT22;4094;49.948;11.574;2023-06-22T01:04:09;23.60;63.10
8103;DHT22;4094;49.948;11.574;2023-06-22T01:06:45;23.60;63.10
8103;DHT22;4094;49.948;11.574;2023-06-22T01:09:22;23.50;63.30
8103;DHT22;4094;49.948;11.574;2023-06-22T01:11:56;23.50;63.50
8103;DHT22;4094;49.948;11.574;2023-06-22T01:14:30;23.50;63.40
8103;DHT22;4094;49.948;11.574;2023-06-22T01:17:02;23.50;63.40
8103;DHT22;4094;49.948;11.574;2023-06-22T01:19:45;23.40;63.30
8103;DHT22;4094;49.948;11.574;2023-06-22T01:22:17;23.30;63.40
8103;DHT22;4094;49.948;11.574;2023-06-22T01:24:57;23.30;63.50
8103;DHT22;4094;49.948;11.574;2023-06-22T01:27:38;23.30;63.70
8103;DHT22;4094;49.948;11.574;2023-06-22T01:30:14;23.20;63.80
8103;DHT22;4094;49.948;11.574;2023-06-22T01:32:45;23.20;64.00
8103;DHT22;4094;49.948;11.574;2023-06-22T01:35:15;23.10;64.00
8103;DHT22;4094;49.948;11.574;2023-06-22T01:37:46;23.10;64.20
8103;DHT22;4094;49.948;11.574;2023-06-22T01:40:15;23.10;64.40
8103;DHT22;4094;49.948;11.574;2023-06-22T01:42:45;23.10;64.50
8103;DHT22;4094;49.948;11.574;2023-06-22T01:45:17;23.10;64.70
8103;DHT22;4094;49.948;11.574;2023-06-22T01:47:48;23.10;65.00
8103;DHT22;4094;49.948;11.574;2023-06-22T01:50:18;23.00;65.60
8103;DHT22;4094;49.948;11.574;2023-06-22T01:52:48;23.00;65.00
8103;DHT22;4094;49.948;11.574;2023-06-22T01:55:17;23.10;65.00
8103;DHT22;4094;49.948;11.574;2023-06-22T01:57:49;23.10;65.00
8103;DHT22;4094;49.948;11.574;2023-06-22T02:00:21;23.10;64.90
8103;DHT22;4094;49.948;11.574;2023-06-22T02:02:56;23.10;65.00
8103;DHT22;4094;49.948;11.574;2023-06-22T02:05:31;23.10;65.20
8103;DHT22;4094;49.948;11.574;2023-06-22T02:08:07;23.10;65.10
8103;DHT22;4094;49.948;11.574;2023-06-22T02:10:38;23.10;65.10
8103;DHT22;4094;49.948;11.574;2023-06-22T02:13:11;23.10;65.00
8103;DHT22;4094;49.948;11.574;2023-06-22T02:15:42;23.10;65.00
8103;DHT22;4094;49.948;11.574;2023-06-22T02:18:13;23.10;64.90
8103;DHT22;4094;49.948;11.574;2023-06-22T02:20:43;23.10;65.00
8103;DHT22;4094;49.948;11.574;2023-06-22T02:23:12;23.10;65.20
8103;DHT22;4094;49.948;11.574;2023-06-22T02:25:41;23.10;65.20
8103;DHT22;4094;49.948;11.574;2023-06-22T02:28:12;23.10;65.20
8103;DHT22;4094;49.948;11.574;2023-06-22T02:30:43;23.10;65.20
8103;DHT22;4094;49.948;11.574;2023-06-22T02:33:12;23.10;65.20
8103;DHT22;4094;49.948;11.574;2023-06-22T02:35:42;23.10;65.10
8103;DHT22;4094;49.948;11.574;2023-06-22T02:38:15;23.10;65.00
8103;DHT22;4094;49.948;11.574;2023-06-22T02:40:45;23.10;64.90
8103;DHT22;4094;49.948;11.574;2023-06-22T02:43:15;23.00;64.80
8103;DHT22;4094;49.948;11.574;2023-06-22T02:45:46;23.10;64.90
8103;DHT22;4094;49.948;11.574;2023-06-22T02:48:17;23.00;64.70
8103;DHT22;4094;49.948;11.574;2023-06-22T02:50:47;23.00;64.80
8103;DHT22;4094;49.948;11.574;2023-06-22T02:53:17;23.00;64.80
8103;DHT22;4094;49.948;11.574;2023-06-22T02:55:47;23.00;64.80
8103;DHT22;4094;49.948;11.574;2023-06-22T02:58:17;23.00;64.90
8103;DHT22;4094;49.948;11.574;2023-06-22T03:00:48;22.90;64.90
8103;DHT22;4094;49.948;11.574;2023-06-22T03:03:20;22.90;65.10
8103;DHT22;4094;49.948;11.574;2023-06-22T03:05:50;22.90;65.10
8103;DHT22;4094;49.948;11.574;2023-06-22T03:08:22;22.90;65.20
8103;DHT22;4094;49.948;11.574;2023-06-22T03:10:52;22.90;65.20
8103;DHT22;4094;49.948;11.574;2023-06-22T03:13:21;22.90;65.20
8103;DHT22;4094;49.948;11.574;2023-06-22T03:15:53;22.90;65.30
8103;DHT22;4094;49.948;11.574;2023-06-22T03:18:22;22.90;65.30
8103;DHT22;4094;49.948;11.574;2023-06-22T03:20:51;22.80;65.40
8103;DHT22;4094;49.948;11.574;2023-06-22T03:23:21;22.80;65.50
8103;DHT22;4094;49.948;11.574;2023-06-22T03:25:50;22.70;65.60
8103;DHT22;4094;49.948;11.574;2023-06-22T03:28:20;22.70;65.80
8103;DHT22;4094;49.948;11.574;2023-06-22T03:30:49;22.70;66.00
8103;DHT22;4094;49.948;11.574;2023-06-22T03:33:20;22.70;66.00
8103;DHT22;4094;49.948;11.574;2023-06-22T03:35:50;22.70;66.30
8103;DHT22;4094;49.948;11.574;2023-06-22T03:38:21;22.70;66.50
8103;DHT22;4094;49.948;11.574;2023-06-22T03:40:54;22.70;66.70
8103;DHT22;4094;49.948;11.574;2023-06-22T03:43:24;22.70;66.70
8103;DHT22;4094;49.948;11.574;2023-06-22T03:45:53;22.70;67.00
8103;DHT22;4094;49.948;11.574;2023-06-22T03:48:24;22.70;67.40
8103;DHT22;4094;49.948;11.574;2023-06-22T03:50:54;22.70;67.80
8103;DHT22;4094;49.948;11.574;2023-06-22T03:53:23;22.80;68.70
8103;DHT22;4094;49.948;11.574;2023-06-22T03:55:53;22.80;68.00
8103;DHT22;4094;49.948;11.574;2023-06-22T03:58:23;22.80;68.10
8103;DHT22;4094;49.948;11.574;2023-06-22T04:00:53;22.80;68.10
8103;DHT22;4094;49.948;11.574;2023-06-22T04:03:24;22.80;68.10
8103;DHT22;4094;49.948;11.574;2023-06-22T04:05:54;22.90;68.30
8103;DHT22;4094;49.948;11.574;2023-06-22T04:08:24;22.90;68.10
8103;DHT22;4094;49.948;11.574;2023-06-22T04:10:54;22.90;68.10
8103;DHT22;4094;49.948;11.574;2023-06-22T04:13:23;22.90;68.10
8103;DHT22;4094;49.948;11.574;2023-06-22T04:15:53;23.00;68.10
8103;DHT22;4094;49.948;11.574;2023-06-22T04:18:24;23.00;68.30
8103;DHT22;4094;49.948;11.574;2023-06-22T04:20:54;23.00;68.30
8103;DHT22;4094;49.948;11.574;2023-06-22T04:23:23;23.00;68.30
8103;DHT22;4094;49.948;11.574;2023-06-22T04:25:53;23.00;68.30
8103;DHT22;4094;49.948;11.574;2023-06-22T04:28:24;23.00;68.30
8103;DHT22;4094;49.948;11.574;2023-06-22T04:30:55;23.00;68.10
8103;DHT22;4094;49.948;11.574;2023-06-22T04:33:32;23.00;68.30
8103;DHT22;4094;49.948;11.574;2023-06-22T04:36:02;23.10;68.50
8103;DHT22;4094;49.948;11.574;2023-06-22T04:38:32;23.10;68.50
8103;DHT22;4094;49.948;11.574;2023-06-22T04:41:02;23.10;68.50
8103;DHT22;4094;49.948;11.574;2023-06-22T04:43:33;23.10;68.50
8103;DHT22;4094;49.948;11.574;2023-06-22T04:46:03;23.10;68.60
8103;DHT22;4094;49.948;11.574;2023-06-22T04:48:35;23.20;68.70
8103;DHT22;4094;49.948;11.574;2023-06-22T04:51:05;23.20;68.60
8103;DHT22;4094;49.948;11.574;2023-06-22T04:53:36;23.20;68.40
8103;DHT22;4094;49.948;11.574;2023-06-22T04:56:08;23.30;68.30
8103;DHT22;4094;49.948;11.574;2023-06-22T04:58:38;23.40;68.40
8103;DHT22;4094;49.948;11.574;2023-06-22T05:01:07;23.40;68.30
8103;DHT22;4094;49.948;11.574;2023-06-22T05:03:40;23.40;68.10
8103;DHT22;4094;49.948;11.574;2023-06-22T05:06:10;23.50;68.20
8103;DHT22;4094;49.948;11.574;2023-06-22T05:08:42;23.50;68.00
8103;DHT22;4094;49.948;11.574;2023-06-22T05:11:12;23.50;68.00
8103;DHT22;4094;49.948;11.574;2023-06-22T05:13:41;23.60;68.10
8103;DHT22;4094;49.948;11.574;2023-06-22T05:16:11;23.60;67.90
8103;DHT22;4094;49.948;11.574;2023-06-22T05:18:43;23.60;67.80
8103;DHT22;4094;49.948;11.574;2023-06-22T05:21:12;23.60;68.00
8103;DHT22;4094;49.948;11.574;2023-06-22T05:23:42;23.70;67.80
8103;DHT22;4094;49.948;11.574;2023-06-22T05:26:12;23.70;67.80
8103;DHT22;4094;49.948;11.574;2023-06-22T05:28:41;23.80;67.80
8103;DHT22;4094;49.948;11.574;2023-06-22T05:31:14;23.80;67.50
8103;DHT22;4094;49.948;11.574;2023-06-22T05:33:46;23.90;67.50
8103;DHT22;4094;49.948;11.574;2023-06-22T05:36:16;23.90;67.30
8103;DHT22;4094;49.948;11.574;2023-06-22T05:38:48;24.00;67.30
8103;DHT22;4094;49.948;11.574;2023-06-22T05:41:17;24.00;67.20
8103;DHT22;4094;49.948;11.574;2023-06-22T05:43:47;24.10;67.20
8103;DHT22;4094;49.948;11.574;2023-06-22T05:46:17;24.10;67.20
8103;DHT22;4094;49.948;11.574;2023-06-22T05:48:48;24.20;67.10
8103;DHT22;4094;49.948;11.574;2023-06-22T05:51:17;24.20;67.00
8103;DHT22;4094;49.948;11.574;2023-06-22T05:53:47;24.30;67.10
8103;DHT22;4094;49.948;11.574;2023-06-22T05:56:18;24.30;67.00
8103;DHT22;4094;49.948;11.574;2023-06-22T05:58:47;24.40;66.80
8103;DHT22;4094;49.948;11.574;2023-06-22T06:01:17;24.50;66.70
8103;DHT22;4094;49.948;11.574;2023-06-22T06:03:48;24.60;66.60
8103;DHT22;4094;49.948;11.574;2023-06-22T06:06:18;24.60;66.50
8103;DHT22;4094;49.948;11.574;2023-06-22T06:08:49;24.80;66.90
8103;DHT22;4094;49.948;11.574;2023-06-22T06:11:19;24.80;66.30
8103;DHT22;4094;49.948;11.574;2023-06-22T06:13:48;25.00;66.20
8103;DHT22;4094;49.948;11.574;2023-06-22T06:16:18;25.00;65.10
8103;DHT22;4094;49.948;11.574;2023-06-22T06:18:49;25.20;64.10
8103;DHT22;4094;49.948;11.574;2023-06-22T06:21:18;25.20;63.20
8103;DHT22;4094;49.948;11.574;2023-06-22T06:23:48;25.40;63.50
8103;DHT22;4094;49.948;11.574;2023-06-22T06:26:17;25.50;63.10
8103;DHT22;4094;49.948;11.574;2023-06-22T06:28:56;25.60;61.80
8103;DHT22;4094;49.948;11.574;2023-06-22T06:31:25;25.70;62.00
8103;DHT22;4094;49.948;11.574;2023-06-22T06:33:58;25.80;61.80
8103;DHT22;4094;49.948;11.574;2023-06-22T06:36:27;25.90;60.50
8103;DHT22;4094;49.948;11.574;2023-06-22T06:38:57;26.00;60.60
8103;DHT22;4094;49.948;11.574;2023-06-22T06:41:26;26.10;60.00
8103;DHT22;4094;49.948;11.574;2023-06-22T06:43:56;26.10;59.80
8103;DHT22;4094;49.948;11.574;2023-06-22T06:46:25;26.20;59.70
8103;DHT22;4094;49.948;11.574;2023-06-22T06:48:54;26.30;59.70
8103;DHT22;4094;49.948;11.574;2023-06-22T06:51:25;26.40;60.00
8103;DHT22;4094;49.948;11.574;2023-06-22T06:53:54;26.40;59.40
8103;DHT22;4094;49.948;11.574;2023-06-22T06:56:24;26.60;59.70
8103;DHT22;4094;49.948;11.574;2023-06-22T06:58:53;26.70;59.50
8103;DHT22;4094;49.948;11.574;2023-06-22T07:01:23;26.80;59.40
8103;DHT22;4094;49.948;11.574;2023-06-22T07:03:53;26.80;58.80
8103;DHT22;4094;49.948;11.574;2023-06-22T07:06:24;26.90;58.30
8103;DHT22;4094;49.948;11.574;2023-06-22T07:08:57;27.00;58.00
8103;DHT22;4094;49.948;11.574;2023-06-22T07:11:27;27.00;58.50
8103;DHT22;4094;49.948;11.574;2023-06-22T07:13:56;27.10;58.50
8103;DHT22;4094;49.948;11.574;2023-06-22T07:16:26;27.20;58.50
8103;DHT22;4094;49.948;11.574;2023-06-22T07:18:55;27.30;58.00
8103;DHT22;4094;49.948;11.574;2023-06-22T07:21:26;27.40;57.70
8103;DHT22;4094;49.948;11.574;2023-06-22T07:23:56;27.50;57.70
8103;DHT22;4094;49.948;11.574;2023-06-22T07:26:26;27.60;56.90
8103;DHT22;4094;49.948;11.574;2023-06-22T07:28:56;27.60;57.10
8103;DHT22;4094;49.948;11.574;2023-06-22T07:31:26;27.70;56.40
8103;DHT22;4094;49.948;11.574;2023-06-22T07:33:55;27.80;56.00
8103;DHT22;4094;49.948;11.574;2023-06-22T07:36:26;27.90;56.10
8103;DHT22;4094;49.948;11.574;2023-06-22T07:38:58;28.00;56.10
8103;DHT22;4094;49.948;11.574;2023-06-22T07:41:27;28.00;55.80
8103;DHT22;4094;49.948;11.574;2023-06-22T07:43:57;28.10;55.00
8103;DHT22;4094;49.948;11.574;2023-06-22T07:46:26;28.10;55.00
8103;DHT22;4094;49.948;11.574;2023-06-22T07:48:58;28.20;54.70
8103;DHT22;4094;49.948;11.574;2023-06-22T07:51:29;28.20;54.40
8103;DHT22;4094;49.948;11.574;2023-06-22T07:53:58;28.30;54.50
8103;DHT22;4094;49.948;11.574;2023-06-22T07:56:28;28.30;54.20
8103;DHT22;4094;49.948;11.574;2023-06-22T07:58:57;28.30;54.30
8103;DHT22;4094;49.948;11.574;2023-06-22T08:01:29;28.40;54.40
8103;DHT22;4094;49.948;11.574;2023-06-22T08:03:58;28.40;54.30
8103;DHT22;4094;49.948;11.574;2023-06-22T08:06:31;28.50;54.20
8103;DHT22;4094;49.948;11.574;2023-06-22T08:09:00;28.60;54.10
8103;DHT22;4094;49.948;11.574;2023-06-22T08:11:30;28.60;54.20
8103;DHT22;4094;49.948;11.574;2023-06-22T08:14:01;28.70;54.10
8103;DHT22;4094;49.948;11.574;2023-06-22T08:16:30;28.70;54.10
8103;DHT22;4094;49.948;11.574;2023-06-22T08:19:00;28.80;54.00
8103;DHT22;4094;49.948;11.574;2023-06-22T08:21:31;28.90;53.90
8103;DHT22;4094;49.948;11.574;2023-06-22T08:24:01;29.00;53.80
8103;DHT22;4094;49.948;11.574;2023-06-22T08:26:31;29.10;54.10
8103;DHT22;4094;49.948;11.574;2023-06-22T08:29:04;29.20;54.00
8103;DHT22;4094;49.948;11.574;2023-06-22T08:31:33;29.20;53.00
8103;DHT22;4094;49.948;11.574;2023-06-22T08:34:03;29.30;53.10
8103;DHT22;4094;49.948;11.574;2023-06-22T08:36:34;29.40;52.90
8103;DHT22;4094;49.948;11.574;2023-06-22T08:39:05;29.40;53.00
8103;DHT22;4094;49.948;11.574;2023-06-22T08:41:35;29.50;52.80
8103;DHT22;4094;49.948;11.574;2023-06-22T08:44:04;29.60;52.90
8103;DHT22;4094;49.948;11.574;2023-06-22T08:46:33;29.60;52.70
8103;DHT22;4094;49.948;11.574;2023-06-22T08:49:03;29.70;52.70
8103;DHT22;4094;49.948;11.574;2023-06-22T08:51:34;29.80;52.70
8103;DHT22;4094;49.948;11.574;2023-06-22T08:54:04;29.90;52.50
8103;DHT22;4094;49.948;11.574;2023-06-22T08:56:33;30.00;52.70
8103;DHT22;4094;49.948;11.574;2023-06-22T08:59:03;30.00;52.40
8103;DHT22;4094;49.948;11.574;2023-06-22T09:01:35;30.10;52.20
8103;DHT22;4094;49.948;11.574;2023-06-22T09:04:05;30.10;51.60
8103;DHT22;4094;49.948;11.574;2023-06-22T09:06:39;30.20;51.40
8103;DHT22;4094;49.948;11.574;2023-06-22T09:09:13;30.20;49.80
8103;DHT22;4094;49.948;11.574;2023-06-22T09:11:42;30.20;49.90
8103;DHT22;4094;49.948;11.574;2023-06-22T09:14:12;30.20;49.80
8103;DHT22;4094;49.948;11.574;2023-06-22T09:16:42;30.20;49.80
8103;DHT22;4094;49.948;11.574;2023-06-22T09:19:11;30.20;50.10
8103;DHT22;4094;49.948;11.574;2023-06-22T09:21:42;30.20;49.80
8103;DHT22;4094;49.948;11.574;2023-06-22T09:24:12;30.30;49.80
8103;DHT22;4094;49.948;11.574;2023-06-22T09:26:42;30.40;48.70
8103;DHT22;4094;49.948;11.574;2023-06-22T09:29:11;30.40;48.70
8103;DHT22;4094;49.948;11.574;2023-06-22T09:31:40;30.50;48.70
8103;DHT22;4094;49.948;11.574;2023-06-22T09:34:10;30.40;48.60
8103;DHT22;4094;49.948;11.574;2023-06-22T09:36:42;30.50;48.70
8103;DHT22;4094;49.948;11.574;2023-06-22T09:39:12;30.60;48.80
8103;DHT22;4094;49.948;11.574;2023-06-22T09:41:42;30.60;48.40
8103;DHT22;4094;49.948;11.574;2023-06-22T09:44:11;30.70;48.70
8103;DHT22;4094;49.948;11.574;2023-06-22T09:46:40;30.70;48.70
8103;DHT22;4094;49.948;11.574;2023-06-22T09:49:10;30.80;48.70
8103;DHT22;4094;49.948;11.574;2023-06-22T09:51:39;30.80;48.30
8103;DHT22;4094;49.948;11.574;2023-06-22T09:54:10;30.90;48.20
8103;DHT22;4094;49.948;11.574;2023-06-22T09:56:39;30.90;48.30
8103;DHT22;4094;49.948;11.574;2023-06-22T09:59:09;31.00;48.20
8103;DHT22;4094;49.948;11.574;2023-06-22T10:01:45;31.10;47.90
8103;DHT22;4094;49.948;11.574;2023-06-22T10:04:15;31.10;48.10
8103;DHT22;4094;49.948;11.574;2023-06-22T10:06:45;31.20;47.40
8103;DHT22;4094;49.948;11.574;2023-06-22T10:09:15;31.20;47.30
8103;DHT22;4094;49.948;11.574;2023-06-22T10:11:45;31.30;47.00
8103;DHT22;4094;49.948;11.574;2023-06-22T10:14:14;31.40;47.20
8103;DHT22;4094;49.948;11.574;2023-06-22T10:16:44;31.40;47.60
8103;DHT22;4094;49.948;11.574;2023-06-22T10:19:14;31.40;47.10
8103;DHT22;4094;49.948;11.574;2023-06-22T10:21:43;31.50;47.00
8103;DHT22;4094;49.948;11.574;2023-06-22T10:24:13;31.50;47.70
8103;DHT22;4094;49.948;11.574;2023-06-22T10:26:43;31.50;47.10
8103;DHT22;4094;49.948;11.574;2023-06-22T10:29:13;31.60;47.10
8103;DHT22;4094;49.948;11.574;2023-06-22T10:31:44;31.60;46.80
8103;DHT22;4094;49.948;11.574;2023-06-22T10:34:14;31.60;46.50
8103;DHT22;4094;49.948;11.574;2023-06-22T10:36:44;31.70;46.70
8103;DHT22;4094;49.948;11.574;2023-06-22T10:39:15;31.70;45.90
8103;DHT22;4094;49.948;11.574;2023-06-22T10:41:46;31.70;45.90
8103;DHT22;4094;49.948;11.574;2023-06-22T10:44:15;31.70;46.10
8103;DHT22;4094;49.948;11.574;2023-06-22T10:46:45;31.70;45.30
8103;DHT22;4094;49.948;11.574;2023-06-22T10:49:14;31.70;44.80
8103;DHT22;4094;49.948;11.574;2023-06-22T10:51:43;31.80;45.10
8103;DHT22;4094;49.948;11.574;2023-06-22T10:54:12;31.80;45.00
8103;DHT22;4094;49.948;11.574;2023-06-22T10:56:42;31.90;45.70
8103;DHT22;4094;49.948;11.574;2023-06-22T10:59:13;31.90;45.40
8103;DHT22;4094;49.948;11.574;2023-06-22T11:01:42;32.00;45.60
8103;DHT22;4094;49.948;11.574;2023-06-22T11:04:12;32.00;45.20
8103;DHT22;4094;49.948;11.574;2023-06-22T11:06:41;32.10;45.20
8103;DHT22;4094;49.948;11.574;2023-06-22T11:09:11;32.20;45.10
8103;DHT22;4094;49.948;11.574;2023-06-22T11:11:44;32.30;44.70
8103;DHT22;4094;49.948;11.574;2023-06-22T11:14:15;32.30;44.90
8103;DHT22;4094;49.948;11.574;2023-06-22T11:16:44;32.40;43.50
8103;DHT22;4094;49.948;11.574;2023-06-22T11:19:17;32.40;43.90
8103;DHT22;4094;49.948;11.574;2023-06-22T11:21:46;32.40;44.30
8103;DHT22;4094;49.948;11.574;2023-06-22T11:24:16;32.40;44.00
8103;DHT22;4094;49.948;11.574;2023-06-22T11:26:45;32.60;43.40
8103;DHT22;4094;49.948;11.574;2023-06-22T11:29:16;32.60;43.80
8103;DHT22;4094;49.948;11.574;2023-06-22T11:32:05;32.60;43.20
8103;DHT22;4094;49.948;11.574;2023-06-22T11:34:35;32.70;41.80
8103;DHT22;4094;49.948;11.574;2023-06-22T11:37:05;32.70;42.50
8103;DHT22;4094;49.948;11.574;2023-06-22T11:39:35;32.70;41.90
8103;DHT22;4094;49.948;11.574;2023-06-22T11:42:14;32.70;41.80
8103;DHT22;4094;49.948;11.574;2023-06-22T11:44:45;32.80;41.70
8103;DHT22;4094;49.948;11.574;2023-06-22T11:47:15;32.80;41.40
8103;DHT22;4094;49.948;11.574;2023-06-22T11:49:44;32.80;41.70
8103;DHT22;4094;49.948;11.574;2023-06-22T11:52:14;32.80;41.70
8103;DHT22;4094;49.948;11.574;2023-06-22T11:54:45;32.90;42.00
8103;DHT22;4094;49.948;11.574;2023-06-22T11:57:15;32.90;42.60
8103;DHT22;4094;49.948;11.574;2023-06-22T11:59:46;33.00;42.00
8103;DHT22;4094;49.948;11.574;2023-06-22T12:02:15;33.00;42.00
8103;DHT22;4094;49.948;11.574;2023-06-22T12:04:45;33.10;41.70
8103;DHT22;4094;49.948;11.574;2023-06-22T12:07:14;33.20;42.10
8103;DHT22;4094;49.948;11.574;2023-06-22T12:09:44;33.20;41.40
8103;DHT22;4094;49.948;11.574;2023-06-22T12:12:13;33.30;41.50
8103;DHT22;4094;49.948;11.574;2023-06-22T12:14:43;33.40;41.20
8103;DHT22;4094;49.948;11.574;2023-06-22T12:17:13;33.40;41.30
8103;DHT22;4094;49.948;11.574;2023-06-22T12:19:43;33.40;41.40
8103;DHT22;4094;49.948;11.574;2023-06-22T12:22:12;33.40;41.80
8103;DHT22;4094;49.948;11.574;2023-06-22T12:24:42;33.50;41.30
8103;DHT22;4094;49.948;11.574;2023-06-22T12:27:11;33.50;41.10
8103;DHT22;4094;49.948;11.574;2023-06-22T12:29:45;33.60;42.00
8103;DHT22;4094;49.948;11.574;2023-06-22T12:32:18;33.70;41.40
8103;DHT22;4094;49.948;11.574;2023-06-22T12:34:48;33.70;40.50
8103;DHT22;4094;49.948;11.574;2023-06-22T12:37:17;33.80;40.60
8103;DHT22;4094;49.948;11.574;2023-06-22T12:39:47;33.80;40.70
8103;DHT22;4094;49.948;11.574;2023-06-22T12:42:17;33.80;40.40
8103;DHT22;4094;49.948;11.574;2023-06-22T12:44:46;33.90;41.10
8103;DHT22;4094;49.948;11.574;2023-06-22T12:47:15;33.90;40.60
8103;DHT22;4094;49.948;11.574;2023-06-22T12:49:46;33.90;41.00
8103;DHT22;4094;49.948;11.574;2023-06-22T12:52:16;34.00;40.40
8103;DHT22;4094;49.948;11.574;2023-06-22T12:54:45;34.10;40.70
8103;DHT22;4094;49.948;11.574;2023-06-22T12:57:22;34.10;40.30
8103;DHT22;4094;49.948;11.574;2023-06-22T12:59:51;34.20;40.00
8103;DHT22;4094;49.948;11.574;2023-06-22T13:02:21;34.20;39.70
8103;DHT22;4094;49.948;11.574;2023-06-22T13:04:51;34.30;39.60
8103;DHT22;4094;49.948;11.574;2023-06-22T13:07:22;34.30;40.10
8103;DHT22;4094;49.948;11.574;2023-06-22T13:09:52;34.40;40.00
8103;DHT22;4094;49.948;11.574;2023-06-22T13:12:22;34.40;39.20
8103;DHT22;4094;49.948;11.574;2023-06-22T13:14:51;34.40;38.80
8103;DHT22;4094;49.948;11.574;2023-06-22T13:17:21;34.50;39.00
8103;DHT22;4094;49.948;11.574;2023-06-22T13:19:52;34.50;39.10
8103;DHT22;4094;49.948;11.574;2023-06-22T13:22:28;34.50;39.40
8103;DHT22;4094;49.948;11.574;2023-06-22T13:24:58;34.50;39.70
8103;DHT22;4094;49.948;11.574;2023-06-22T13:27:28;34.50;39.60
8103;DHT22;4094;49.948;11.574;2023-06-22T13:29:58;34.50;39.20
8103;DHT22;4094;49.948;11.574;2023-06-22T13:32:27;34.50;38.50
8103;DHT22;4094;49.948;11.574;2023-06-22T13:34:57;34.60;39.00
8103;DHT22;4094;49.948;11.574;2023-06-22T13:37:27;34.60;39.20
8103;DHT22;4094;49.948;11.574;2023-06-22T13:39:56;34.60;38.60
8103;DHT22;4094;49.948;11.574;2023-06-22T13:42:27;34.60;38.70
8103;DHT22;4094;49.948;11.574;2023-06-22T13:44:57;34.70;38.80
8103;DHT22;4094;49.948;11.574;2023-06-22T13:47:26;34.70;38.90
8103;DHT22;4094;49.948;11.574;2023-06-22T13:49:59;34.70;38.20
8103;DHT22;4094;49.948;11.574;2023-06-22T13:52:29;34.60;38.50
8103;DHT22;4094;49.948;11.574;2023-06-22T13:54:58;34.60;38.30
8103;DHT22;4094;49.948;11.574;2023-06-22T13:57:27;34.60;38.20
8103;DHT22;4094;49.948;11.574;2023-06-22T13:59:56;34.50;38.70
8103;DHT22;4094;49.948;11.574;2023-06-22T14:02:26;34.50;38.20
8103;DHT22;4094;49.948;11.574;2023-06-22T14:04:56;34.40;38.60
8103;DHT22;4094;49.948;11.574;2023-06-22T14:07:27;34.50;38.50
8103;DHT22;4094;49.948;11.574;2023-06-22T14:09:56;34.40;38.70
8103;DHT22;4094;49.948;11.574;2023-06-22T14:12:26;34.40;38.80
8103;DHT22;4094;49.948;11.574;2023-06-22T14:14:55;34.50;38.90
8103;DHT22;4094;49.948;11.574;2023-06-22T14:17:25;34.50;39.00
8103;DHT22;4094;49.948;11.574;2023-06-22T14:19:54;34.60;38.80
8103;DHT22;4094;49.948;11.574;2023-06-22T14:22:29;34.70;38.60
8103;DHT22;4094;49.948;11.574;2023-06-22T14:25:05;34.80;38.50
8103;DHT22;4094;49.948;11.574;2023-06-22T14:27:35;34.80;38.40
8103;DHT22;4094;49.948;11.574;2023-06-22T14:30:11;34.80;38.30
8103;DHT22;4094;49.948;11.574;2023-06-22T14:32:42;34.90;38.80
8103;DHT22;4094;49.948;11.574;2023-06-22T14:35:12;34.90;39.20
8103;DHT22;4094;49.948;11.574;2023-06-22T14:37:43;34.90;39.10
8103;DHT22;4094;49.948;11.574;2023-06-22T14:40:12;34.90;39.10
8103;DHT22;4094;49.948;11.574;2023-06-22T14:42:42;34.90;38.40
8103;DHT22;4094;49.948;11.574;2023-06-22T14:45:12;34.80;38.20
8103;DHT22;4094;49.948;11.574;2023-06-22T14:47:42;34.80;38.20
8103;DHT22;4094;49.948;11.574;2023-06-22T14:50:12;34.80;38.40
8103;DHT22;4094;49.948;11.574;2023-06-22T14:52:45;34.70;38.50
8103;DHT22;4094;49.948;11.574;2023-06-22T14:55:14;34.70;38.10
8103;DHT22;4094;49.948;11.574;2023-06-22T14:57:43;34.70;38.40
8103;DHT22;4094;49.948;11.574;2023-06-22T15:00:13;34.70;38.50
8103;DHT22;4094;49.948;11.574;2023-06-22T15:02:43;34.70;38.40
8103;DHT22;4094;49.948;11.574;2023-06-22T15:05:12;34.70;38.50
8103;DHT22;4094;49.948;11.574;2023-06-22T15:07:42;34.70;38.80
8103;DHT22;4094;49.948;11.574;2023-06-22T15:10:13;34.70;38.80
8103;DHT22;4094;49.948;11.574;2023-06-22T15:12:43;34.70;39.00
8103;DHT22;4094;49.948;11.574;2023-06-22T15:15:12;34.80;38.70
8103;DHT22;4094;49.948;11.574;2023-06-22T15:17:42;34.80;38.20
8103;DHT22;4094;49.948;11.574;2023-06-22T15:20:11;34.80;38.30
8103;DHT22;4094;49.948;11.574;2023-06-22T15:22:41;34.80;38.60
8103;DHT22;4094;49.948;11.574;2023-06-22T15:25:10;34.90;38.80
8103;DHT22;4094;49.948;11.574;2023-06-22T15:27:41;34.90;38.40
8103;DHT22;4094;49.948;11.574;2023-06-22T15:30:11;34.90;38.30
8103;DHT22;4094;49.948;11.574;2023-06-22T15:32:43;34.90;38.60
8103;DHT22;4094;49.948;11.574;2023-06-22T15:35:12;35.00;38.10
8103;DHT22;4094;49.948;11.574;2023-06-22T15:37:42;35.00;38.10
8103;DHT22;4094;49.948;11.574;2023-06-22T15:40:12;35.00;37.80
8103;DHT22;4094;49.948;11.574;2023-06-22T15:42:43;34.90;38.00
8103;DHT22;4094;49.948;11.574;2023-06-22T15:45:13;34.90;37.70
8103;DHT22;4094;49.948;11.574;2023-06-22T15:47:43;34.90;37.80
8103;DHT22;4094;49.948;11.574;2023-06-22T15:50:12;35.00;38.10
8103;DHT22;4094;49.948;11.574;2023-06-22T15:52:42;35.00;38.20
8103;DHT22;4094;49.948;11.574;2023-06-22T15:55:15;35.00;38.20
8103;DHT22;4094;49.948;11.574;2023-06-22T15:57:46;35.00;38.00
8103;DHT22;4094;49.948;11.574;2023-06-22T16:00:17;35.10;38.00
8103;DHT22;4094;49.948;11.574;2023-06-22T16:02:47;35.10;38.40
8103;DHT22;4094;49.948;11.574;2023-06-22T16:05:17;35.10;37.40